Time;durP1;ratioP1;P1;durP2;ratioP2;P2;SDS_P1;SDS_P2;PMS_P1;PMS_P2;Temp;Humidity;BMP_temperature;BMP_pressure;BME280_temperature;BME280_humidity;BME280_pressure;Samples;Min_cycle;Max_cycle;Signal;HPM_P1;HPM_P2
2022/09/19 00:00:36;;;;;;;10.93;2.50;;;;;;;13.51;82.70;101954.03;5027788;28;20079;-67
2022/09/19 00:03:02;;;;;;;12.57;2.05;;;;;;;13.41;83.04;101958.69;5044644;28;20048;-67
2022/09/19 00:05:27;;;;;;;12.65;2.15;;;;;;;13.38;83.82;101958.78;5047888;28;20081;-67
2022/09/19 00:07:53;;;;;;;12.77;2.00;;;;;;;13.29;84.42;101959.03;5047671;28;20448;-66
2022/09/19 00:10:18;;;;;;;15.45;2.38;;;;;;;13.32;83.44;101958.94;5046691;28;20029;-66
2022/09/19 00:12:43;;;;;;;11.40;2.30;;;;;;;13.36;81.64;101961.47;5048727;28;20039;-68
2022/09/19 00:15:09;;;;;;;19.15;2.55;;;;;;;13.50;80.72;101962.88;5047902;28;20021;-67
2022/09/19 00:17:34;;;;;;;8.93;1.55;;;;;;;13.50;80.66;101955.81;5046795;28;20049;-67
2022/09/19 00:20:00;;;;;;;9.15;1.83;;;;;;;13.46;80.18;101961.22;5048520;28;20075;-67
2022/09/19 00:22:25;;;;;;;10.70;2.47;;;;;;;13.41;79.75;101964.00;5047168;28;20078;-66
2022/09/19 00:24:50;;;;;;;11.38;1.70;;;;;;;13.39;79.46;101960.50;5046753;28;20033;-66
2022/09/19 00:27:22;;;;;;;23.45;3.30;;;;;;;13.38;78.82;101967.59;5009922;28;20021;-67
2022/09/19 00:29:47;;;;;;;14.13;2.25;;;;;;;13.29;78.84;101966.97;5008049;28;20040;-66
2022/09/19 00:32:14;;;;;;;12.20;2.13;;;;;;;13.20;78.27;101966.31;5023369;28;20029;-66
2022/09/19 00:34:43;;;;;;;12.73;1.73;;;;;;;13.21;77.90;101961.88;5042419;28;20487;-66
2022/09/19 00:37:08;;;;;;;11.35;2.80;;;;;;;13.11;77.43;101967.44;5047283;28;20037;-66
2022/09/19 00:39:34;;;;;;;13.48;1.73;;;;;;;13.09;77.37;101966.59;5046077;28;20029;-66
2022/09/19 00:41:59;;;;;;;14.40;1.90;;;;;;;13.06;76.82;101965.81;5033290;28;20087;-66
2022/09/19 00:44:25;;;;;;;10.48;1.83;;;;;;;13.05;76.47;101966.72;5025751;28;20071;-67
2022/09/19 00:46:59;;;;;;;12.98;1.90;;;;;;;13.07;76.11;101971.06;5026545;28;20491;-66
2022/09/19 00:49:26;;;;;;;9.30;1.33;;;;;;;13.08;75.98;101962.22;5025129;28;20477;-66
2022/09/19 00:51:59;;;;;;;13.65;2.05;;;;;;;13.06;75.55;101974.59;5027738;28;20033;-66
2022/09/19 00:54:40;;;;;;;18.20;1.95;;;;;;;13.11;75.55;101972.72;5026054;28;20045;-67
2022/09/19 00:57:06;;;;;;;14.88;2.13;;;;;;;13.26;74.67;101970.56;5031208;28;20106;-67
2022/09/19 00:59:34;;;;;;;14.43;2.05;;;;;;;13.31;74.40;101976.63;5047318;28;20113;-67
2022/09/19 01:02:04;;;;;;;10.53;1.73;;;;;;;13.33;74.72;101974.78;5045131;28;20067;-66
2022/09/19 01:04:35;;;;;;;12.63;2.35;;;;;;;13.42;74.29;101973.66;5044097;28;20045;-65
2022/09/19 01:10:02;;;;;;;9.55;2.03;;;;;;;13.62;73.96;101980.22;5065340;23;20110;-62
2022/09/19 01:12:52;;;;;;;9.63;1.77;;;;;;;13.69;73.82;101983.56;5065780;28;20060;-62
2022/09/19 01:15:42;;;;;;;15.18;1.90;;;;;;;13.76;73.79;101982.47;5067030;28;20115;-61
2022/09/19 01:18:09;;;;;;;12.23;2.00;;;;;;;13.80;73.96;101981.47;5065666;28;20216;-61
2022/09/19 01:20:58;;;;;;;9.95;1.45;;;;;;;13.78;74.52;101983.28;5064167;28;20055;-62
2022/09/19 01:23:32;;;;;;;10.73;1.75;;;;;;;13.81;74.73;101982.34;5045216;28;20103;-61
2022/09/19 01:26:19;;;;;;;9.93;1.63;;;;;;;13.81;75.06;101979.69;5046512;28;20033;-59
2022/09/19 01:28:53;;;;;;;15.50;1.85;;;;;;;13.77;75.64;101981.53;5047755;28;20033;-60
2022/09/19 01:31:27;;;;;;;9.35;2.60;;;;;;;13.74;76.23;101985.16;5061552;28;20024;-62
2022/09/19 01:34:02;;;;;;;7.95;1.85;;;;;;;13.64;76.86;101984.53;5082330;28;20042;-60
2022/09/19 01:36:32;;;;;;;12.70;1.75;;;;;;;13.55;77.59;101984.81;5065198;28;20501;-60
2022/09/19 01:38:58;;;;;;;15.75;2.90;;;;;;;13.55;77.83;101982.19;5048489;28;20044;-61
2022/09/19 01:41:24;;;;;;;7.47;2.53;;;;;;;13.57;77.53;101985.63;5065270;28;20040;-60
2022/09/19 01:43:50;;;;;;;11.27;2.08;;;;;;;13.50;77.74;101978.78;5066785;28;20029;-61
2022/09/19 01:46:53;;;;;;;12.00;2.10;;;;;;;13.55;77.15;101986.59;5066688;28;20028;-61
2022/09/19 01:49:43;;;;;;;9.15;1.88;;;;;;;13.54;76.89;101983.06;5065910;28;20083;-62
2022/09/19 01:52:24;;;;;;;8.27;1.67;;;;;;;13.44;76.49;101986.84;5067320;28;20455;-62
2022/09/19 01:55:01;;;;;;;16.02;2.03;;;;;;;13.40;75.87;101984.28;5064908;28;20078;-64
2022/09/19 01:57:41;;;;;;;6.60;1.73;;;;;;;13.43;75.37;101993.94;5081464;28;20017;-61
2022/09/19 02:00:18;;;;;;;12.68;1.80;;;;;;;13.44;75.04;101992.16;5066307;28;20025;-64
2022/09/19 02:03:14;;;;;;;8.48;1.45;;;;;;;13.47;74.79;101997.34;5062805;28;20056;-60
2022/09/19 02:05:50;;;;;;;14.45;1.95;;;;;;;13.54;74.46;101990.16;5048202;28;20107;-62
2022/09/19 02:08:47;;;;;;;13.15;2.05;;;;;;;13.43;74.85;101998.34;5049948;28;20048;-60
2022/09/19 02:11:20;;;;;;;9.65;1.75;;;;;;;13.43;74.87;102001.00;5068785;28;20076;-62
2022/09/19 02:13:49;;;;;;;11.52;1.63;;;;;;;13.38;74.99;102006.41;5069117;28;20025;-60
2022/09/19 02:16:36;;;;;;;7.13;1.27;;;;;;;13.34;74.95;101995.03;5070564;28;20078;-61
2022/09/19 02:19:32;;;;;;;7.95;2.13;;;;;;;13.26;75.16;102003.22;5052377;28;20191;-60
2022/09/19 02:22:08;;;;;;;6.43;1.45;;;;;;;13.36;75.23;102005.59;5061614;28;20144;-61
2022/09/19 02:24:38;;;;;;;10.50;2.10;;;;;;;13.36;75.23;102002.94;5068166;28;20560;-61
2022/09/19 02:27:09;;;;;;;6.07;1.42;;;;;;;13.42;75.43;102013.38;5069589;28;20029;-60
2022/09/19 02:29:39;;;;;;;6.28;1.25;;;;;;;13.45;75.21;102012.44;5067894;28;20028;-60
2022/09/19 02:32:04;;;;;;;11.70;1.73;;;;;;;13.48;75.15;102009.69;5069821;28;20021;-61
2022/09/19 02:34:30;;;;;;;13.00;1.55;;;;;;;13.50;74.71;102011.44;5069156;28;20481;-60
2022/09/19 02:37:02;;;;;;;13.73;1.50;;;;;;;13.58;74.59;102013.84;5069410;28;20571;-60
2022/09/19 02:39:44;;;;;;;10.82;1.80;;;;;;;13.62;73.88;102010.22;5049333;28;20024;-62
2022/09/19 02:42:22;;;;;;;11.23;2.10;;;;;;;13.71;73.13;102005.56;5068425;28;20020;-62
2022/09/19 02:45:09;;;;;;;11.60;1.60;;;;;;;13.84;72.66;101999.00;5054286;28;20024;-61
2022/09/19 02:47:45;;;;;;;8.95;1.75;;;;;;;13.89;72.33;101997.09;5068288;28;20037;-62
2022/09/19 02:50:14;;;;;;;8.05;2.08;;;;;;;13.92;72.05;101997.91;5066612;28;20032;-62
2022/09/19 02:52:40;;;;;;;9.20;1.80;;;;;;;13.92;71.68;102000.56;5068000;28;20024;-61
2022/09/19 02:55:23;;;;;;;9.55;1.90;;;;;;;13.85;71.96;102000.72;5066519;28;20107;-62
2022/09/19 02:57:50;;;;;;;7.70;1.42;;;;;;;13.82;72.11;102003.47;5085037;28;20068;-61
2022/09/19 03:00:16;;;;;;;9.38;1.58;;;;;;;13.74;72.47;101994.88;5085356;28;20028;-60
2022/09/19 03:02:46;;;;;;;9.93;1.92;;;;;;;13.66;73.14;102010.13;5084191;28;20082;-62
2022/09/19 03:05:19;;;;;;;9.60;1.70;;;;;;;13.59;74.00;102005.00;5067753;28;20369;-62
2022/09/19 03:07:53;;;;;;;10.52;1.60;;;;;;;13.56;74.36;102017.44;5067911;28;20028;-64
2022/09/19 03:10:22;;;;;;;16.10;1.85;;;;;;;13.48;74.94;102007.03;5069843;28;20028;-64
2022/09/19 03:12:55;;;;;;;;;;;;;;;13.48;75.27;102012.31;5068653;28;20040;-62
2022/09/19 03:15:41;;;;;;;10.60;1.45;;;;;;;13.39;75.91;102014.31;5067331;28;20407;-64
2022/09/19 03:18:13;;;;;;;5.63;1.35;;;;;;;13.36;75.98;102009.13;5047926;28;20040;-62
2022/09/19 03:20:39;;;;;;;9.82;1.52;;;;;;;13.41;76.06;102011.63;5047402;28;20107;-62
2022/09/19 03:23:07;;;;;;;6.18;1.52;;;;;;;13.34;76.00;102008.28;5048324;28;20553;-61
2022/09/19 03:25:33;;;;;;;4.88;1.52;;;;;;;13.30;76.23;102008.41;5065846;28;20031;-61
2022/09/19 03:27:58;;;;;;;9.05;1.70;;;;;;;13.25;76.61;102003.25;5068692;28;20576;-61
2022/09/19 03:30:24;;;;;;;8.52;1.58;;;;;;;13.25;77.25;102006.75;5067721;28;20029;-61
2022/09/19 03:32:49;;;;;;;6.45;1.60;;;;;;;13.29;77.03;102006.66;5067833;28;20036;-61
2022/09/19 03:35:15;;;;;;;8.05;1.52;;;;;;;13.25;77.49;102008.53;5068641;28;20040;-61
2022/09/19 03:37:41;;;;;;;8.90;1.75;;;;;;;13.32;77.36;102017.16;5066944;28;20040;-62
2022/09/19 03:40:07;;;;;;;11.80;1.55;;;;;;;13.35;77.16;102017.97;5067998;28;20368;-61
2022/09/19 03:42:35;;;;;;;5.57;1.58;;;;;;;13.31;77.60;102016.31;5068983;28;20024;-61
2022/09/19 03:45:01;;;;;;;12.32;1.83;;;;;;;13.37;77.24;102020.59;5067986;28;20059;-61
2022/09/19 03:47:27;;;;;;;11.50;1.20;;;;;;;13.36;77.25;102017.06;5067168;28;20684;-62
2022/09/19 03:49:52;;;;;;;11.75;2.13;;;;;;;13.27;77.50;102022.59;5050629;28;20042;-62
2022/09/19 03:52:18;;;;;;;7.72;2.03;;;;;;;13.24;77.67;102025.31;5068317;28;20028;-61
2022/09/19 03:54:47;;;;;;;12.02;1.77;;;;;;;13.23;77.83;102020.94;5067914;28;20029;-61
2022/09/19 03:57:13;;;;;;;12.50;1.50;;;;;;;13.26;77.57;102020.84;5067855;28;20039;-61
2022/09/19 03:59:41;;;;;;;18.02;1.83;;;;;;;13.25;77.55;102024.41;5066765;28;20892;-61
2022/09/19 04:02:07;;;;;;;10.13;1.88;;;;;;;13.29;77.30;102017.25;5068049;28;20050;-60
2022/09/19 04:04:33;;;;;;;9.48;1.70;;;;;;;13.20;77.87;102026.31;5066588;28;20047;-60
2022/09/19 04:07:00;;;;;;;6.28;1.30;;;;;;;13.21;77.59;102028.03;5068475;28;20100;-61
2022/09/19 04:09:26;;;;;;;9.63;1.90;;;;;;;13.29;76.83;102022.53;5066502;28;20635;-62
2022/09/19 04:11:52;;;;;;;8.48;1.45;;;;;;;13.29;76.61;102026.06;5067465;28;20032;-61
2022/09/19 04:14:17;;;;;;;6.28;1.40;;;;;;;13.30;76.26;102025.16;5068960;28;20067;-61
2022/09/19 04:16:43;;;;;;;6.10;1.40;;;;;;;13.27;76.37;102033.16;5067263;28;20491;-62
2022/09/19 04:19:09;;;;;;;12.85;1.38;;;;;;;13.17;76.58;102034.31;5066774;28;20035;-62
2022/09/19 04:21:35;;;;;;;9.90;1.70;;;;;;;13.13;76.58;102038.84;5068802;28;20024;-60
2022/09/19 04:24:01;;;;;;;14.07;1.67;;;;;;;13.00;77.19;102040.91;5065736;28;20035;-59
2022/09/19 04:26:26;;;;;;;9.85;1.80;;;;;;;12.90;77.38;102042.91;5067672;28;20052;-60
2022/09/19 04:28:52;;;;;;;8.95;1.67;;;;;;;12.87;77.96;102032.41;5066583;28;20055;-63
2022/09/19 04:31:17;;;;;;;8.18;1.52;;;;;;;12.94;77.65;102035.78;5068347;28;20032;-62
2022/09/19 04:33:42;;;;;;;9.15;1.75;;;;;;;12.91;78.12;102043.81;5063657;28;20829;-64
2022/09/19 04:36:08;;;;;;;16.92;1.67;;;;;;;12.98;77.97;102046.22;5053997;28;20033;-62
2022/09/19 04:38:33;;;;;;;8.23;1.48;;;;;;;12.96;77.68;102041.91;5054788;28;20037;-62
2022/09/19 04:41:00;;;;;;;8.07;1.45;;;;;;;12.98;77.96;102040.94;5064046;28;20073;-62
2022/09/19 04:43:26;;;;;;;11.18;1.88;;;;;;;12.99;77.39;102042.69;5078873;28;20059;-63
2022/09/19 04:45:55;;;;;;;8.73;1.52;;;;;;;13.02;77.07;102047.03;5062384;28;20074;-61
2022/09/19 04:48:22;;;;;;;7.55;1.50;;;;;;;13.04;77.02;102044.34;5062980;28;20071;-62
2022/09/19 04:50:50;;;;;;;15.07;2.35;;;;;;;12.96;76.97;102052.47;5065340;28;20386;-61
2022/09/19 04:53:20;;;;;;;8.13;1.30;;;;;;;12.93;77.62;102055.19;5066172;28;20017;-62
2022/09/19 04:55:48;;;;;;;7.50;1.85;;;;;;;12.94;77.43;102049.03;5066360;28;20032;-61
2022/09/19 04:58:15;;;;;;;13.23;2.10;;;;;;;12.93;77.51;102056.06;5065388;28;20078;-62
2022/09/19 05:00:41;;;;;;;5.57;1.65;;;;;;;13.04;77.13;102055.81;5065586;28;20024;-62
2022/09/19 05:03:15;;;;;;;10.07;2.25;;;;;;;13.09;76.71;102053.91;5065438;28;20036;-60
2022/09/19 05:05:44;;;;;;;10.02;1.27;;;;;;;13.24;75.90;102054.41;5063452;28;20112;-62
2022/09/19 05:08:11;;;;;;;11.60;1.60;;;;;;;13.31;75.62;102057.78;5054810;28;20095;-61
2022/09/19 05:10:36;;;;;;;11.93;1.63;;;;;;;13.33;75.83;102056.00;5058811;28;20050;-60
2022/09/19 05:13:02;;;;;;;15.23;2.15;;;;;;;13.43;75.64;102069.84;5064245;28;20109;-63
2022/09/19 05:15:27;;;;;;;9.73;1.52;;;;;;;13.46;75.60;102067.13;5060481;28;20051;-63
2022/09/19 05:17:53;;;;;;;12.18;1.55;;;;;;;13.49;75.38;102067.03;5053981;28;20092;-61
2022/09/19 05:20:19;;;;;;;17.58;1.92;;;;;;;13.51;75.31;102067.88;5050696;28;20033;-61
2022/09/19 05:22:45;;;;;;;10.68;1.45;;;;;;;13.48;76.04;102070.56;5045488;28;20527;-62
2022/09/19 05:25:11;;;;;;;5.43;1.30;;;;;;;13.50;75.83;102074.97;5055508;28;20032;-61
2022/09/19 05:27:37;;;;;;;17.35;1.83;;;;;;;13.49;76.17;102078.50;5066561;28;20021;-63
2022/09/19 05:30:03;;;;;;;12.05;1.52;;;;;;;13.46;76.54;102077.72;5065594;28;20157;-61
2022/09/19 05:32:29;;;;;;;11.40;1.67;;;;;;;13.45;76.70;102079.47;5063757;28;20336;-61
2022/09/19 05:34:56;;;;;;;10.93;1.55;;;;;;;13.48;76.81;102075.88;5064719;28;20330;-60
2022/09/19 05:37:22;;;;;;;12.77;1.92;;;;;;;13.47;77.28;102079.44;5063697;28;20347;-62
2022/09/19 05:39:48;;;;;;;7.90;2.08;;;;;;;13.50;77.35;102084.69;5065801;28;20123;-60
2022/09/19 05:42:13;;;;;;;8.13;1.25;;;;;;;13.52;77.72;102081.09;5070310;28;20024;-61
2022/09/19 05:44:39;;;;;;;7.50;1.48;;;;;;;13.56;77.80;102086.31;5065505;28;20487;-61
2022/09/19 05:47:04;;;;;;;9.57;1.85;;;;;;;13.54;78.28;102083.69;5049546;28;20032;-62
2022/09/19 05:49:30;;;;;;;10.68;2.28;;;;;;;13.56;78.40;102081.88;5056751;28;20035;-62
2022/09/19 05:51:56;;;;;;;10.40;1.45;;;;;;;13.63;78.17;102087.88;5062409;28;20086;-60
2022/09/19 05:54:21;;;;;;;12.70;2.38;;;;;;;13.68;77.91;102082.44;5064021;28;20040;-61
2022/09/19 05:56:50;;;;;;;12.73;2.03;;;;;;;13.74;77.61;102090.25;5064207;28;20040;-61
2022/09/19 05:59:15;;;;;;;7.60;1.37;;;;;;;13.76;77.76;102093.72;5050133;28;20067;-60
2022/09/19 06:01:41;;;;;;;12.93;1.90;;;;;;;13.84;77.72;102088.19;5035447;28;20287;-61
2022/09/19 06:04:07;;;;;;;9.88;1.77;;;;;;;13.89;77.15;102092.47;5068248;28;20025;-61
2022/09/19 06:06:36;;;;;;;11.43;1.50;;;;;;;13.94;77.46;102089.66;5068797;28;20702;-61
2022/09/19 06:09:01;;;;;;;8.25;1.40;;;;;;;13.97;77.33;102088.75;5063443;28;20041;-61
2022/09/19 06:11:27;;;;;;;12.00;1.58;;;;;;;14.05;77.12;102094.69;5061165;28;20552;-63
2022/09/19 06:16:37;;;;;;;10.82;1.65;;;;;;;14.24;76.74;102091.50;5049773;28;20044;-62
2022/09/19 06:19:02;;;;;;;12.30;1.80;;;;;;;14.32;76.45;102093.91;5065046;28;20434;-61
2022/09/19 06:21:31;;;;;;;9.25;1.65;;;;;;;14.38;76.27;102105.22;5068328;28;20378;-61
2022/09/19 06:23:57;;;;;;;8.18;1.65;;;;;;;14.48;76.04;102107.59;5067669;28;20024;-61
2022/09/19 06:26:23;;;;;;;14.65;1.90;;;;;;;14.56;75.81;102110.88;5068578;28;20536;-59
2022/09/19 06:28:48;;;;;;;8.50;1.60;;;;;;;14.54;76.06;102110.03;5066927;28;20488;-60
2022/09/19 06:31:14;;;;;;;9.13;1.40;;;;;;;14.62;75.89;102116.00;5065814;28;20335;-61
2022/09/19 06:33:42;;;;;;;10.05;1.60;;;;;;;14.64;76.31;102121.25;5057198;28;20455;-61
2022/09/19 06:36:09;;;;;;;5.25;1.35;;;;;;;14.62;76.44;102123.94;5057854;28;20467;-60
2022/09/19 06:38:35;;;;;;;6.28;1.38;;;;;;;14.62;76.43;102123.94;5055671;28;20029;-62
2022/09/19 06:41:00;;;;;;;9.43;1.73;;;;;;;14.60;76.89;102124.94;5058357;28;20017;-62
2022/09/19 06:43:26;;;;;;;13.82;2.22;;;;;;;14.56;77.01;102129.44;5052553;28;20028;-62
2022/09/19 06:45:52;;;;;;;11.68;1.40;;;;;;;14.56;77.51;102133.88;5065164;28;20500;-61
2022/09/19 06:48:17;;;;;;;7.47;1.48;;;;;;;14.52;77.63;102134.00;5067966;28;20052;-61
2022/09/19 06:50:47;;;;;;;10.00;1.50;;;;;;;14.54;77.74;102141.88;5061237;28;20079;-60
2022/09/19 06:53:12;;;;;;;;;;;;;;;14.58;78.00;102137.34;5064634;28;20020;-61
2022/09/19 06:55:38;;;;;;;12.80;1.58;;;;;;;14.62;77.69;102139.00;5067665;28;19916;-62
2022/09/19 06:58:05;;;;;;;9.52;1.55;;;;;;;14.61;77.73;102140.78;5067554;28;20474;-63
2022/09/19 07:00:35;;;;;;;5.50;1.00;;;;;;;14.77;77.67;102137.66;5066680;28;20087;-61
2022/09/19 07:03:06;;;;;;;6.13;1.35;;;;;;;14.87;77.52;102140.94;5065719;28;20535;-62
2022/09/19 07:05:34;;;;;;;7.32;1.20;;;;;;;14.94;77.66;102145.13;5064502;28;20017;-63
2022/09/19 07:07:59;;;;;;;9.13;1.40;;;;;;;15.02;77.70;102140.44;5066707;28;20609;-61
2022/09/19 07:10:26;;;;;;;5.88;2.08;;;;;;;15.14;77.50;102149.78;5065921;28;20024;-62
2022/09/19 07:12:56;;;;;;;11.02;1.50;;;;;;;15.33;77.09;102146.56;5067722;28;20485;-61
2022/09/19 07:15:22;;;;;;;10.77;1.35;;;;;;;15.46;76.13;102151.44;5067088;28;20390;-60
2022/09/19 07:17:47;;;;;;;14.07;1.83;;;;;;;15.68;75.83;102146.25;5067620;28;20028;-62
2022/09/19 07:20:14;;;;;;;11.20;1.70;;;;;;;15.95;75.15;102151.50;5066015;28;20021;-63
2022/09/19 07:22:39;;;;;;;11.52;1.40;;;;;;;16.26;74.05;102149.59;5063853;28;20040;-59
2022/09/19 07:25:07;;;;;;;18.48;1.63;;;;;;;16.53;72.80;102154.78;5062958;28;20036;-61
2022/09/19 07:27:33;;;;;;;11.15;2.50;;;;;;;16.72;71.80;102159.38;5067078;28;20023;-64
2022/09/19 07:29:59;;;;;;;16.38;1.90;;;;;;;16.74;70.70;102158.38;5062863;28;20082;-61
2022/09/19 07:32:24;;;;;;;13.65;1.65;;;;;;;16.79;70.71;102148.44;5065593;28;20482;-62
2022/09/19 07:34:49;;;;;;;6.45;1.50;;;;;;;16.86;71.35;102156.19;5061921;28;20078;-61
2022/09/19 07:37:15;;;;;;;11.85;1.67;;;;;;;16.83;71.03;102170.50;5063907;28;20024;-61
2022/09/19 07:39:40;;;;;;;8.75;2.13;;;;;;;16.54;71.10;102172.47;5066950;28;20104;-60
2022/09/19 07:42:06;;;;;;;10.13;1.85;;;;;;;16.44;72.26;102165.78;5065574;28;20028;-61
2022/09/19 07:44:31;;;;;;;7.50;1.38;;;;;;;16.10;73.01;102190.00;5066732;28;20016;-62
2022/09/19 07:49:40;;;;;;;9.63;1.52;;;;;;;16.27;74.38;102185.88;5062111;28;20031;-62
2022/09/19 07:52:06;;;;;;;9.63;1.90;;;;;;;16.30;74.65;102175.13;5065842;28;20382;-59
2022/09/19 07:54:31;;;;;;;8.27;1.38;;;;;;;16.35;74.24;102180.28;5066321;28;20466;-61
2022/09/19 07:56:57;;;;;;;7.03;1.50;;;;;;;16.37;74.03;102176.63;5066197;28;20032;-60
2022/09/19 07:59:23;;;;;;;11.10;1.50;;;;;;;16.32;74.07;102183.06;5066411;28;20135;-61
2022/09/19 08:01:49;;;;;;;10.00;1.63;;;;;;;16.36;74.26;102187.31;5065843;28;20100;-60
2022/09/19 08:04:14;;;;;;;9.98;1.77;;;;;;;16.46;74.44;102182.56;5065140;28;20023;-60
2022/09/19 08:06:40;;;;;;;7.13;1.70;;;;;;;16.61;73.62;102189.06;5066348;28;20086;-61
2022/09/19 08:09:05;;;;;;;7.97;2.10;;;;;;;16.70;74.02;102193.19;5062701;28;20067;-63
2022/09/19 08:11:35;;;;;;;12.15;1.98;;;;;;;16.82;74.63;102192.69;5066334;28;20379;-61
2022/09/19 08:14:01;;;;;;;8.77;1.58;;;;;;;17.03;73.70;102191.00;5064105;28;20016;-62
2022/09/19 08:16:26;;;;;;;8.55;1.45;;;;;;;17.18;73.04;102197.53;5065882;28;20464;-61
2022/09/19 08:18:51;;;;;;;15.90;1.73;;;;;;;17.28;72.64;102202.50;5062701;28;20030;-60
2022/09/19 08:21:18;;;;;;;6.88;1.70;;;;;;;17.31;72.11;102199.72;5066510;28;20039;-62
2022/09/19 08:23:44;;;;;;;10.25;1.75;;;;;;;17.00;75.41;102212.41;5064505;28;20078;-62
2022/09/19 08:26:10;;;;;;;9.68;1.85;;;;;;;17.01;74.26;102215.94;5066640;28;20017;-62
2022/09/19 08:28:35;;;;;;;5.82;1.40;;;;;;;16.95;73.60;102214.41;5066254;28;20487;-61
2022/09/19 08:31:00;;;;;;;15.85;2.08;;;;;;;17.23;73.31;102217.78;5063062;28;20017;-60
2022/09/19 08:33:26;;;;;;;8.75;1.60;;;;;;;17.43;71.99;102217.84;5063309;28;20023;-61
2022/09/19 08:35:54;;;;;;;5.50;1.75;;;;;;;17.51;72.09;102220.19;5065765;28;20531;-60
2022/09/19 08:38:19;;;;;;;10.32;1.70;;;;;;;17.59;72.77;102219.88;5064845;28;20020;-62
2022/09/19 08:41:00;;;;;;;7.63;2.15;;;;;;;17.87;71.07;102224.03;5066300;28;20019;-60
2022/09/19 08:43:46;;;;;;;8.25;1.90;;;;;;;18.09;69.88;102217.75;5065514;28;20048;-60
2022/09/19 08:46:15;;;;;;;10.48;1.70;;;;;;;18.22;68.93;102226.13;5062456;28;20026;-61
2022/09/19 08:48:43;;;;;;;;;;;;;;;18.26;67.85;102227.72;5065677;28;20028;-60
2022/09/19 08:51:26;;;;;;;8.05;1.52;;;;;;;18.27;66.67;102223.25;5063772;28;20424;-62
2022/09/19 08:54:02;;;;;;;12.02;1.27;;;;;;;17.90;66.22;102228.34;5064135;28;20020;-62
2022/09/19 08:56:28;;;;;;;12.07;1.67;;;;;;;18.08;66.56;102226.69;5055220;28;20483;-61
2022/09/19 08:59:08;;;;;;;8.73;1.65;;;;;;;18.01;66.30;102226.13;5041861;28;20025;-61
2022/09/19 09:01:35;;;;;;;10.70;1.63;;;;;;;18.00;65.14;102229.69;5063686;28;20375;-63
2022/09/19 09:04:10;;;;;;;8.88;1.45;;;;;;;18.02;65.40;102233.16;5064007;28;20097;-60
2022/09/19 09:06:52;;;;;;;12.07;2.03;;;;;;;18.14;63.79;102226.47;5063953;28;20024;-60
2022/09/19 09:09:54;;;;;;;7.95;1.55;;;;;;;18.24;63.64;102232.25;5064916;28;20041;-60
2022/09/19 09:12:31;;;;;;;13.18;2.10;;;;;;;18.13;64.05;102227.41;5060600;28;20025;-61
2022/09/19 09:15:13;;;;;;;8.10;1.83;;;;;;;18.13;63.32;102224.75;5069407;28;20021;-60
2022/09/19 09:18:07;;;;;;;8.15;1.20;;;;;;;18.24;63.21;102228.72;5065997;28;20079;-61
2022/09/19 09:20:52;;;;;;;10.82;1.58;;;;;;;18.15;62.37;102230.84;5067882;28;20490;-61
2022/09/19 09:23:17;;;;;;;11.07;1.70;;;;;;;18.23;62.80;102235.84;5065671;28;20202;-61
2022/09/19 09:25:47;;;;;;;8.07;1.58;;;;;;;18.16;60.91;102229.94;5069481;28;20546;-60
2022/09/19 09:28:26;;;;;;;8.30;1.30;;;;;;;18.30;61.80;102233.78;5064838;28;20031;-61
2022/09/19 09:30:52;;;;;;;;;;;;;;;18.36;60.77;102235.31;5076943;28;20013;-60
2022/09/19 09:33:40;;;;;;;4.22;1.25;;;;;;;18.38;61.15;102228.97;5062437;28;20264;-61
2022/09/19 09:36:15;;;;;;;9.85;1.30;;;;;;;18.25;60.69;102236.66;5067182;28;20025;-60
2022/09/19 09:38:52;;;;;;;7.20;1.63;;;;;;;18.12;60.23;102244.31;5061722;28;20079;-62
2022/09/19 09:41:45;;;;;;;6.90;1.70;;;;;;;18.03;60.76;102234.03;5063301;28;20024;-62
2022/09/19 09:44:14;;;;;;;12.13;1.70;;;;;;;17.85;62.57;102241.88;5062564;28;20028;-61
2022/09/19 09:46:46;;;;;;;4.57;1.30;;;;;;;17.75;62.52;102243.19;5068778;28;20479;-63
2022/09/19 09:49:12;;;;;;;11.05;1.75;;;;;;;17.50;62.16;102242.44;5066489;28;20142;-62
2022/09/19 09:51:47;;;;;;;7.22;1.33;;;;;;;17.60;63.27;102248.25;5068182;28;20918;-64
2022/09/19 09:57:45;;;;;;;10.23;1.70;;;;;;;17.91;62.78;102246.09;5065986;28;20036;-61
2022/09/19 10:06:11;;;;;;;12.88;1.33;;;;;;;18.38;56.68;102239.66;5067493;28;20040;-61
2022/09/19 10:09:02;;;;;;;6.53;1.17;;;;;;;18.51;55.64;102249.78;5081132;28;20031;-62
2022/09/19 10:11:31;;;;;;;7.20;1.30;;;;;;;18.31;55.66;102247.03;5064574;28;20020;-61
2022/09/19 10:14:02;;;;;;;8.20;1.50;;;;;;;18.13;56.44;102253.19;5069114;28;20024;-61
2022/09/19 10:16:33;;;;;;;6.30;1.42;;;;;;;18.08;58.14;102248.03;5064758;28;20032;-60
2022/09/19 10:19:25;;;;;;;6.15;1.42;;;;;;;18.19;57.48;102250.28;5064244;28;20021;-60
2022/09/19 10:21:52;;;;;;;10.00;1.42;;;;;;;18.17;56.49;102239.66;5063617;28;20112;-61
2022/09/19 10:24:43;;;;;;;6.20;1.05;;;;;;;18.27;55.68;102237.44;5083916;28;20103;-63
2022/09/19 10:27:13;;;;;;;8.00;1.33;;;;;;;18.41;55.83;102244.84;5066971;28;20035;-61
2022/09/19 10:29:59;;;;;;;8.50;1.92;;;;;;;18.49;56.48;102243.63;5060959;28;20028;-61
2022/09/19 10:32:38;;;;;;;6.32;1.05;;;;;;;18.50;56.59;102259.56;5066624;28;20032;-61
2022/09/19 10:35:25;;;;;;;;;;;;;;;18.46;51.47;102252.66;5069130;28;20118;-61
2022/09/19 10:38:01;;;;;;;9.00;1.17;;;;;;;18.37;53.53;102237.03;5067453;28;20335;-61
2022/09/19 10:40:31;;;;;;;10.02;1.40;;;;;;;18.57;55.49;102249.47;5068189;28;20421;-60
2022/09/19 10:42:56;;;;;;;7.30;1.17;;;;;;;18.65;54.33;102233.13;5084039;28;20405;-60
2022/09/19 10:45:25;;;;;;;6.28;1.08;;;;;;;18.92;52.73;102244.31;5068063;28;20205;-61
2022/09/19 10:48:17;;;;;;;6.75;1.30;;;;;;;18.84;52.77;102241.13;5068226;28;20033;-62
2022/09/19 10:50:44;;;;;;;7.10;1.10;;;;;;;19.11;53.49;102243.47;5068686;28;20463;-60
2022/09/19 10:53:21;;;;;;;5.13;1.10;;;;;;;19.34;51.30;102248.63;5067716;28;21166;-61
2022/09/19 10:55:47;;;;;;;11.82;1.20;;;;;;;19.35;52.10;102248.56;5068299;28;20040;-60
2022/09/19 10:58:16;;;;;;;7.30;1.13;;;;;;;19.35;53.35;102245.03;5066607;28;20013;-60
2022/09/19 11:00:48;;;;;;;7.80;1.08;;;;;;;19.69;53.48;102238.84;5068103;28;20558;-60
2022/09/19 11:03:30;;;;;;;8.55;1.65;;;;;;;20.02;53.44;102244.41;5067570;28;20021;-60
2022/09/19 11:06:10;;;;;;;9.57;1.60;;;;;;;20.27;53.33;102245.78;5061613;28;20029;-61
2022/09/19 11:08:54;;;;;;;6.88;1.10;;;;;;;19.86;51.86;102257.69;5066771;28;20044;-62
2022/09/19 11:11:37;;;;;;;7.65;1.48;;;;;;;19.63;52.64;102255.19;5048892;28;20029;-61
2022/09/19 11:14:29;;;;;;;6.78;1.20;;;;;;;19.77;54.01;102259.00;5067929;28;20067;-60
2022/09/19 11:17:30;;;;;;;10.40;1.48;;;;;;;19.59;52.69;102253.63;5066342;28;20067;-60
2022/09/19 11:20:30;;;;;;;7.68;1.48;;;;;;;19.67;51.45;102248.78;5067193;28;20544;-61
2022/09/19 11:23:27;;;;;;;8.15;1.45;;;;;;;19.86;53.52;102250.50;5066741;28;20395;-59
2022/09/19 11:26:03;;;;;;;6.90;1.60;;;;;;;19.73;54.40;102252.06;5065050;28;20417;-62
2022/09/19 11:28:47;;;;;;;9.07;1.40;;;;;;;20.03;53.69;102256.84;5067653;28;20033;-62
2022/09/19 11:31:44;;;;;;;11.65;1.52;;;;;;;20.06;53.22;102254.00;5066351;28;20028;-60
2022/09/19 11:34:28;;;;;;;8.55;1.63;;;;;;;19.85;54.00;102261.28;5064404;28;20025;-60
2022/09/19 11:37:06;;;;;;;7.88;1.90;;;;;;;19.97;54.78;102255.31;5065943;28;20046;-60
2022/09/19 11:39:50;;;;;;;12.15;1.50;;;;;;;20.07;54.83;102247.69;5064797;28;20028;-61
2022/09/19 11:42:44;;;;;;;5.05;1.40;;;;;;;20.13;54.64;102263.44;5067455;28;20056;-59
2022/09/19 11:45:16;;;;;;;8.43;1.38;;;;;;;20.00;53.24;102262.31;5033203;28;20077;-60
2022/09/19 11:47:53;;;;;;;8.50;1.83;;;;;;;20.03;54.11;102251.47;5066305;28;20024;-60
2022/09/19 11:51:03;;;;;;;9.82;1.73;;;;;;;20.13;53.35;102252.72;5068081;28;20379;-61
2022/09/19 11:53:53;;;;;;;4.80;1.20;;;;;;;20.48;51.28;102245.59;5064131;28;20072;-60
2022/09/19 11:56:35;;;;;;;4.45;1.20;;;;;;;20.78;50.23;102261.81;5066041;28;20475;-63
2022/09/19 11:59:06;;;;;;;8.00;1.60;;;;;;;20.77;50.13;102241.31;5050214;28;20086;-61